createdAt,value
2023-01-22T00:01:41.825Z,70.40
2023-01-22T00:04:11.516Z,70.61
2023-01-22T00:06:40.595Z,70.53
2023-01-22T00:09:09.835Z,70.43
2023-01-22T00:11:40.820Z,70.51
2023-01-22T00:14:10.224Z,70.29
2023-01-22T00:16:40.813Z,70.41
2023-01-22T00:19:16.931Z,70.23
2023-01-22T00:21:46.635Z,69.85
2023-01-22T00:24:15.752Z,70.01
2023-01-22T00:26:51.990Z,70.59
2023-01-22T00:29:26.255Z,70.68
2023-01-22T00:31:55.559Z,70.65
2023-01-22T00:34:24.718Z,70.61
2023-01-22T00:36:55.287Z,70.61
2023-01-22T00:39:25.314Z,70.81
2023-01-22T00:44:31.957Z,70.60
2023-01-22T00:47:01.090Z,71.02
2023-01-22T00:49:30.310Z,70.63
2023-01-22T00:51:59.512Z,70.97
2023-01-22T00:54:29.508Z,71.35
2023-01-22T00:57:00.697Z,71.56
2023-01-22T00:59:30.083Z,71.71
2023-01-22T01:01:59.718Z,71.54
2023-01-22T01:04:33.932Z,71.19
2023-01-22T01:07:03.155Z,71.14
2023-01-22T01:09:32.324Z,71.31
2023-01-22T01:12:03.871Z,71.40
2023-01-22T01:14:39.260Z,71.79
2023-01-22T01:17:08.501Z,71.74
2023-01-22T01:19:37.603Z,71.44
2023-01-22T01:22:11.819Z,71.71
2023-01-22T01:24:41.593Z,71.71
2023-01-22T01:27:12.877Z,72.01
2023-01-22T01:29:44.039Z,71.69
2023-01-22T01:32:13.203Z,71.95
2023-01-22T01:34:43.126Z,71.57
2023-01-22T01:37:12.295Z,72.00
2023-01-22T01:39:41.473Z,71.88
2023-01-22T01:42:12.658Z,72.19
2023-01-22T01:44:44.333Z,71.90
2023-01-22T01:47:28.393Z,72.40
2023-01-22T01:49:57.984Z,72.27
2023-01-22T01:52:27.370Z,72.36
2023-01-22T01:55:02.371Z,72.12
2023-01-22T01:57:36.745Z,72.39
2023-01-22T02:00:12.063Z,72.55
2023-01-22T02:02:44.220Z,72.35
2023-01-22T02:05:14.749Z,72.79
2023-01-22T02:07:44.294Z,72.66
2023-01-22T02:10:13.705Z,72.54
2023-01-22T02:12:45.117Z,72.72
2023-01-22T02:15:16.092Z,72.95
2023-01-22T02:17:45.222Z,72.52
2023-01-22T02:20:15.741Z,72.89
2023-01-22T02:22:47.166Z,72.38
2023-01-22T02:25:16.521Z,72.50
2023-01-22T02:27:47.252Z,72.46
2023-01-22T02:30:18.486Z,72.78
2023-01-22T02:32:47.975Z,73.18
2023-01-22T02:35:17.284Z,73.10
2023-01-22T02:37:50.941Z,73.52
2023-01-22T02:40:20.640Z,73.22
2023-01-22T02:42:50.205Z,73.64
2023-01-22T02:45:19.689Z,73.45
2023-01-22T02:47:53.829Z,74.17
2023-01-22T02:50:23.090Z,74.03
2023-01-22T02:52:54.179Z,73.98
2023-01-22T02:58:03.938Z,73.78
2023-01-22T03:00:33.741Z,73.99
2023-01-22T03:03:07.389Z,73.93
2023-01-22T03:05:36.956Z,74.28
2023-01-22T03:08:08.936Z,73.92
2023-01-22T03:10:38.245Z,74.27
2023-01-22T03:13:20.317Z,74.37
2023-01-22T03:16:03.727Z,74.33
2023-01-22T03:18:46.943Z,74.23
2023-01-22T03:21:20.343Z,74.68
2023-01-22T03:23:53.440Z,74.29
2023-01-22T03:26:25.553Z,74.36
2023-01-22T03:28:55.070Z,74.21
2023-01-22T03:31:24.327Z,74.69
2023-01-22T03:33:55.211Z,74.31
2023-01-22T03:39:05.629Z,74.76
2023-01-22T03:41:34.909Z,74.81
2023-01-22T03:44:04.302Z,74.62
2023-01-22T03:49:17.121Z,75.41
2023-01-22T03:51:47.113Z,74.96
2023-01-22T03:54:18.734Z,75.68
2023-01-22T03:56:48.661Z,75.23
2023-01-22T03:59:24.389Z,75.39
2023-01-22T04:01:53.777Z,75.42
2023-01-22T04:04:24.894Z,75.44
2023-01-22T04:06:54.288Z,75.57
2023-01-22T04:09:28.110Z,75.65
2023-01-22T04:11:59.369Z,75.44
2023-01-22T04:14:33.773Z,75.34
2023-01-22T04:17:04.950Z,75.46
2023-01-22T04:19:50.667Z,75.61
2023-01-22T04:22:22.864Z,75.55
2023-01-22T04:24:54.668Z,75.82
2023-01-22T04:27:24.094Z,75.90
2023-01-22T04:32:35.300Z,76.03
2023-01-22T04:35:26.013Z,76.10
2023-01-22T04:37:58.388Z,75.89
2023-01-22T04:40:33.115Z,76.42
2023-01-22T04:43:09.103Z,75.96
2023-01-22T04:45:40.618Z,76.09
2023-01-22T04:48:13.690Z,76.07
2023-01-22T04:50:54.731Z,76.36
2023-01-22T04:53:29.076Z,76.42
2023-01-22T04:56:00.370Z,76.29
2023-01-22T04:58:30.388Z,76.35
2023-01-22T05:01:01.569Z,76.42
2023-01-22T05:03:36.616Z,76.17
2023-01-22T05:06:09.543Z,76.47
2023-01-22T05:08:39.340Z,76.73
2023-01-22T05:11:12.292Z,76.53
2023-01-22T05:13:49.608Z,76.47
2023-01-22T05:16:19.788Z,76.62
2023-01-22T05:18:49.881Z,76.56
2023-01-22T05:21:19.387Z,76.58
2023-01-22T05:24:00.655Z,76.64
2023-01-22T05:26:37.718Z,76.71
2023-01-22T05:29:18.631Z,76.87
2023-01-22T05:32:15.255Z,76.95
2023-01-22T05:34:54.054Z,76.96
2023-01-22T05:37:23.657Z,77.18
2023-01-22T05:39:53.612Z,77.26
2023-01-22T05:42:24.909Z,77.02
2023-01-22T05:44:54.078Z,77.07
2023-01-22T05:47:26.892Z,76.76
2023-01-22T05:50:13.766Z,76.94
2023-01-22T05:52:43.912Z,77.28
2023-01-22T05:55:13.047Z,77.44
2023-01-22T05:57:48.202Z,77.46
2023-01-22T06:00:23.466Z,77.78
2023-01-22T06:03:05.562Z,77.16
2023-01-22T06:05:46.785Z,77.56
2023-01-22T06:08:26.059Z,77.42
2023-01-22T06:11:02.127Z,77.72
2023-01-22T06:13:35.343Z,77.62
2023-01-22T06:16:12.418Z,77.64
2023-01-22T06:19:06.023Z,77.85
2023-01-22T06:21:43.229Z,77.94
2023-01-22T06:24:18.113Z,78.12
2023-01-22T06:26:47.375Z,77.96
2023-01-22T06:29:19.572Z,78.10
2023-01-22T06:31:50.502Z,78.20
2023-01-22T06:34:21.449Z,77.84
2023-01-22T06:36:50.803Z,78.01
2023-01-22T06:39:20.832Z,77.94
2023-01-22T06:47:25.667Z,77.67
2023-01-22T06:49:55.359Z,78.20
2023-01-22T06:52:24.592Z,78.19
2023-01-22T06:54:54.029Z,78.27
2023-01-22T06:57:23.850Z,77.63
2023-01-22T06:59:56.610Z,77.90
2023-01-22T07:02:25.798Z,78.26
2023-01-22T07:04:54.944Z,77.79
2023-01-22T07:07:24.223Z,77.66
2023-01-22T07:09:53.369Z,77.73
2023-01-22T07:12:22.655Z,77.23
2023-01-22T07:14:55.870Z,77.78
2023-01-22T07:17:25.063Z,77.40
2023-01-22T07:19:54.307Z,77.37
2023-01-22T07:22:23.500Z,77.43
2023-01-22T07:24:52.546Z,77.34
2023-01-22T07:27:26.806Z,77.70
2023-01-22T07:29:58.014Z,77.86
2023-01-22T07:32:30.252Z,77.74
2023-01-22T07:34:59.395Z,77.82
2023-01-22T07:37:28.539Z,78.06
2023-01-22T07:39:58.784Z,78.08
2023-01-22T07:42:29.702Z,78.59
2023-01-22T07:45:01.315Z,78.14
2023-01-22T07:47:32.564Z,78.05
2023-01-22T07:50:01.796Z,77.75
2023-01-22T07:52:32.309Z,77.78
2023-01-22T07:55:01.552Z,77.98
2023-01-22T07:57:31.785Z,78.10
2023-01-22T08:00:03.108Z,78.31
2023-01-22T08:02:42.113Z,78.18
2023-01-22T08:05:14.358Z,78.35
2023-01-22T08:07:46.346Z,78.38
2023-01-22T08:10:20.375Z,78.67
2023-01-22T08:12:49.813Z,78.35
2023-01-22T08:15:21.146Z,79.00
2023-01-22T08:17:52.017Z,79.40
2023-01-22T08:20:22.529Z,79.33
2023-01-22T08:22:51.766Z,79.41
2023-01-22T08:25:21.894Z,79.75
2023-01-22T08:27:56.525Z,80.60
2023-01-22T08:30:27.738Z,80.47
2023-01-22T08:33:08.159Z,80.25
2023-01-22T08:35:40.866Z,80.28
2023-01-22T08:38:15.663Z,79.85
2023-01-22T08:40:44.860Z,80.19
2023-01-22T08:43:14.092Z,79.83
2023-01-22T08:45:46.255Z,79.73
2023-01-22T08:48:15.564Z,79.96
2023-01-22T08:50:44.717Z,79.78
2023-01-22T08:53:13.884Z,79.93
2023-01-22T08:55:44.649Z,79.44
2023-01-22T09:00:51.654Z,79.17
2023-01-22T09:03:20.989Z,79.09
2023-01-22T09:05:50.553Z,78.96
2023-01-22T09:08:19.982Z,78.64
2023-01-22T09:10:49.104Z,79.07
2023-01-22T09:13:18.236Z,78.99
2023-01-22T09:15:47.351Z,79.08
2023-01-22T09:18:18.817Z,78.84
2023-01-22T09:20:54.590Z,78.40
2023-01-22T09:23:24.068Z,78.84
2023-01-22T09:25:53.258Z,78.32
2023-01-22T09:28:30.403Z,77.98
2023-01-22T09:30:59.716Z,78.18
2023-01-22T09:33:31.014Z,78.45
2023-01-22T09:36:09.632Z,78.68
2023-01-22T09:38:42.231Z,78.51
2023-01-22T09:41:20.281Z,78.58
2023-01-22T09:43:53.940Z,78.76
2023-01-22T09:46:28.706Z,79.52
2023-01-22T09:49:15.281Z,79.56
2023-01-22T09:51:47.019Z,79.40
2023-01-22T09:54:23.290Z,79.51
2023-01-22T09:56:55.028Z,79.50
2023-01-22T09:59:30.086Z,80.19
2023-01-22T10:02:04.870Z,79.81
2023-01-22T10:04:43.182Z,79.50
2023-01-22T10:07:22.895Z,79.22
2023-01-22T10:09:55.533Z,79.50
2023-01-22T10:12:24.760Z,79.19
2023-01-22T10:14:55.047Z,79.66
2023-01-22T10:17:34.644Z,79.21
2023-01-22T10:20:11.257Z,78.61
2023-01-22T10:22:40.703Z,78.22
2023-01-22T10:25:15.080Z,77.77
2023-01-22T10:30:30.839Z,78.24
2023-01-22T10:33:01.865Z,77.53
2023-01-22T10:35:34.896Z,77.84
2023-01-22T10:38:04.451Z,77.87
2023-01-22T10:40:40.950Z,77.82
2023-01-22T10:43:14.254Z,77.47
2023-01-22T10:45:53.950Z,77.09
2023-01-22T10:51:17.363Z,77.15
2023-01-22T10:53:55.026Z,77.14
2023-01-22T10:56:36.663Z,77.04
2023-01-22T10:59:24.733Z,77.26
2023-01-22T11:02:00.862Z,76.84
2023-01-22T11:04:32.524Z,77.12
2023-01-22T11:07:11.428Z,76.65
2023-01-22T11:09:48.391Z,76.62
2023-01-22T11:12:22.885Z,76.32
2023-01-22T11:15:00.650Z,76.69
2023-01-22T11:17:36.818Z,76.75
2023-01-22T11:20:21.511Z,76.93
2023-01-22T11:23:19.411Z,76.75
2023-01-22T11:26:04.174Z,76.17
2023-01-22T11:28:43.718Z,75.88
2023-01-22T11:34:22.739Z,75.70
2023-01-22T11:37:01.733Z,76.02
2023-01-22T11:40:04.852Z,75.70
2023-01-22T11:42:50.067Z,75.73
2023-01-22T11:45:39.167Z,75.84
2023-01-22T11:48:22.090Z,75.92
2023-01-22T11:50:57.884Z,76.23
2023-01-22T11:53:58.400Z,76.70
2023-01-22T11:56:45.279Z,76.75
2023-01-22T11:59:32.388Z,77.05
2023-01-22T12:02:21.726Z,77.52
2023-01-22T12:05:10.139Z,77.85
2023-01-22T12:08:04.408Z,77.67
2023-01-22T12:11:02.210Z,78.11
2023-01-22T12:13:58.943Z,77.86
2023-01-22T12:16:34.514Z,77.44
2023-01-22T12:19:27.123Z,77.44
2023-01-22T12:22:09.217Z,77.06
2023-01-22T12:24:42.031Z,77.41
2023-01-22T12:27:18.376Z,76.94
2023-01-22T12:29:54.829Z,77.94
2023-01-22T12:32:24.177Z,77.52
2023-01-22T12:34:58.029Z,77.50
2023-01-22T12:37:34.571Z,77.73
2023-01-22T12:40:24.814Z,78.61
2023-01-22T12:43:02.022Z,78.60
2023-01-22T12:45:43.644Z,78.71
2023-01-22T12:54:10.427Z,77.83
2023-01-22T12:56:39.981Z,78.37
2023-01-22T12:59:32.675Z,79.54
2023-01-22T13:02:08.152Z,79.15
2023-01-22T13:04:37.506Z,79.42
2023-01-22T13:07:09.691Z,79.61
2023-01-22T13:09:48.568Z,79.45
2023-01-22T13:12:29.482Z,79.93
2023-01-22T13:14:59.936Z,79.97
2023-01-22T13:17:31.386Z,79.97
2023-01-22T13:20:01.332Z,79.78
2023-01-22T13:22:33.938Z,80.13
2023-01-22T13:25:06.590Z,79.78
2023-01-22T13:27:37.877Z,79.72
2023-01-22T13:30:11.658Z,79.95
2023-01-22T13:32:52.274Z,79.98
2023-01-22T13:35:21.860Z,80.24
2023-01-22T13:37:53.268Z,80.37
2023-01-22T13:40:42.790Z,81.13
2023-01-22T13:43:19.368Z,80.17
2023-01-22T13:45:53.782Z,80.74
2023-01-22T13:48:27.024Z,80.99
2023-01-22T13:51:04.230Z,80.57
2023-01-22T13:53:36.551Z,80.65
2023-01-22T13:56:09.631Z,80.69
2023-01-22T13:58:48.337Z,81.27
2023-01-22T14:01:30.978Z,81.53
2023-01-22T14:04:00.702Z,82.28
2023-01-22T14:06:30.827Z,81.24
2023-01-22T14:09:00.637Z,81.68
2023-01-22T14:11:49.283Z,82.88
2023-01-22T14:14:28.977Z,82.09
2023-01-22T14:16:58.337Z,82.26
2023-01-22T14:19:33.652Z,82.43
2023-01-22T14:22:02.953Z,82.68
2023-01-22T14:24:33.819Z,82.46
2023-01-22T14:27:05.087Z,82.45
2023-01-22T14:29:36.172Z,82.48
2023-01-22T14:32:06.644Z,82.83
2023-01-22T14:34:35.757Z,82.32
2023-01-22T14:37:07.550Z,82.47
2023-01-22T14:39:36.511Z,83.63
2023-01-22T14:42:07.683Z,82.50
2023-01-22T14:44:37.641Z,82.20
2023-01-22T14:47:07.082Z,82.48
2023-01-22T14:49:47.689Z,82.36
2023-01-22T14:52:18.487Z,82.92
2023-01-22T14:54:47.870Z,82.93
2023-01-22T14:57:19.202Z,83.44
2023-01-22T14:59:48.584Z,83.51
2023-01-22T15:02:17.782Z,83.84
2023-01-22T15:04:47.036Z,83.84
2023-01-22T15:07:18.953Z,84.04
2023-01-22T15:09:48.316Z,83.95
2023-01-22T15:12:19.623Z,84.09
2023-01-22T15:14:48.912Z,84.68
2023-01-22T15:17:21.240Z,84.73
2023-01-22T15:19:56.714Z,85.11
2023-01-22T15:22:25.943Z,85.20
2023-01-22T15:24:55.066Z,85.35
2023-01-22T15:27:31.995Z,85.18
2023-01-22T15:30:03.676Z,84.88
2023-01-22T15:32:33.212Z,86.19
2023-01-22T15:35:02.515Z,84.20
2023-01-22T15:37:36.909Z,84.63
2023-01-22T15:40:07.272Z,85.09
2023-01-22T15:42:38.789Z,85.82
2023-01-22T15:45:09.799Z,86.05
2023-01-22T15:47:44.108Z,85.89
2023-01-22T15:50:19.729Z,85.96
2023-01-22T15:52:49.535Z,86.40
2023-01-22T15:55:19.245Z,86.68
2023-01-22T15:57:55.743Z,86.97
2023-01-22T16:00:27.218Z,86.82
2023-01-22T16:03:01.625Z,86.86
2023-01-22T16:05:30.921Z,86.71
2023-01-22T16:08:00.166Z,86.92
2023-01-22T16:10:30.976Z,86.86
2023-01-22T16:13:02.846Z,87.79
2023-01-22T16:15:35.385Z,87.42
2023-01-22T16:18:05.048Z,87.30
2023-01-22T16:20:34.545Z,87.19
2023-01-22T16:23:08.450Z,87.68
2023-01-22T16:25:40.996Z,87.95
2023-01-22T16:28:12.379Z,87.62
2023-01-22T16:30:42.566Z,87.73
2023-01-22T16:33:27.312Z,88.84
2023-01-22T16:36:02.864Z,88.85
2023-01-22T16:38:39.001Z,88.86
2023-01-22T16:41:24.882Z,89.50
2023-01-22T16:44:03.245Z,88.69
2023-01-22T16:46:33.754Z,88.55
2023-01-22T16:49:14.021Z,89.23
2023-01-22T16:51:49.837Z,88.79
2023-01-22T16:54:22.731Z,89.03
2023-01-22T16:56:52.727Z,88.70
2023-01-22T16:59:24.302Z,89.42
2023-01-22T17:01:54.518Z,89.50
2023-01-22T17:04:23.705Z,89.27
2023-01-22T17:06:55.002Z,89.57
2023-01-22T17:09:26.012Z,90.02
2023-01-22T17:11:57.345Z,89.86
2023-01-22T17:14:32.000Z,89.90
2023-01-22T17:17:01.492Z,89.41
2023-01-22T17:19:30.928Z,90.00
2023-01-22T17:22:01.341Z,90.79
2023-01-22T17:24:39.943Z,90.83
2023-01-22T17:27:10.928Z,90.79
2023-01-22T17:29:42.318Z,91.01
2023-01-22T17:34:55.726Z,90.66
2023-01-22T17:37:24.927Z,90.64
2023-01-22T17:39:54.705Z,91.02
2023-01-22T17:42:23.956Z,91.09
2023-01-22T17:45:03.711Z,91.51
2023-01-22T17:47:39.878Z,91.44
2023-01-22T17:50:11.754Z,91.32
2023-01-22T17:52:40.809Z,92.91
2023-01-22T17:55:20.153Z,91.29
2023-01-22T17:57:49.640Z,90.99
2023-01-22T18:00:22.455Z,91.76
2023-01-22T18:02:57.734Z,91.52
2023-01-22T18:05:28.772Z,91.68
2023-01-22T18:07:58.161Z,92.16
2023-01-22T18:10:27.773Z,92.38
2023-01-22T18:12:57.101Z,92.20
2023-01-22T18:15:28.534Z,92.81
2023-01-22T18:20:50.916Z,93.24
2023-01-22T18:23:20.165Z,93.47
2023-01-22T18:25:55.738Z,93.85
2023-01-22T18:28:26.803Z,93.31
2023-01-22T18:30:58.196Z,93.48
2023-01-22T18:33:27.887Z,93.13
2023-01-22T18:36:01.484Z,93.53
2023-01-22T18:38:30.729Z,93.38
2023-01-22T18:41:09.240Z,93.74
2023-01-22T18:43:39.136Z,93.26
2023-01-22T18:46:15.616Z,93.22
2023-01-22T18:48:45.483Z,93.47
2023-01-22T18:51:16.661Z,93.73
2023-01-22T18:53:51.006Z,93.47
2023-01-22T18:56:20.608Z,93.24
2023-01-22T18:58:55.934Z,93.65
2023-01-22T19:01:30.696Z,93.60
2023-01-22T19:04:06.910Z,93.41
2023-01-22T19:06:38.553Z,93.72
2023-01-22T19:09:12.013Z,93.57
2023-01-22T19:11:42.897Z,93.79
2023-01-22T19:14:19.148Z,93.92
2023-01-22T19:16:54.339Z,93.27
2023-01-22T19:19:24.581Z,93.81
2023-01-22T19:21:55.671Z,93.58
2023-01-22T19:24:31.849Z,93.50
2023-01-22T19:27:01.119Z,93.78
2023-01-22T19:29:30.334Z,93.70
2023-01-22T19:32:01.608Z,93.67
2023-01-22T19:34:31.946Z,93.59
2023-01-22T19:37:10.372Z,93.88
2023-01-22T19:39:41.609Z,94.16
2023-01-22T19:42:11.396Z,93.78
2023-01-22T19:44:42.513Z,93.80
2023-01-22T19:47:19.900Z,94.10
2023-01-22T19:49:49.175Z,94.41
2023-01-22T19:52:20.132Z,94.29
2023-01-22T19:54:50.243Z,93.76
2023-01-22T19:57:19.466Z,93.95
2023-01-22T19:59:51.980Z,93.94
2023-01-22T20:02:23.654Z,93.88
2023-01-22T20:05:03.043Z,94.12
2023-01-22T20:07:33.306Z,93.88
2023-01-22T20:10:05.130Z,93.86
2023-01-22T20:12:37.334Z,93.50
2023-01-22T20:15:07.737Z,93.43
2023-01-22T20:17:39.775Z,93.07
2023-01-22T20:20:14.527Z,93.13
2023-01-22T20:22:43.925Z,93.39
2023-01-22T20:25:15.129Z,93.39
2023-01-22T20:27:49.503Z,93.33
2023-01-22T20:30:19.791Z,92.85
2023-01-22T20:32:56.723Z,92.95
2023-01-22T20:35:28.450Z,93.01
2023-01-22T20:37:57.892Z,93.43
2023-01-22T20:40:27.192Z,92.85
2023-01-22T20:43:01.653Z,93.07
2023-01-22T20:45:30.899Z,93.90
2023-01-22T20:48:07.211Z,93.76
2023-01-22T20:50:36.707Z,93.64
2023-01-22T20:53:09.119Z,93.67
2023-01-22T20:55:43.445Z,93.97
2023-01-22T20:58:13.822Z,93.88
2023-01-22T21:00:45.518Z,93.85
2023-01-22T21:03:21.934Z,94.09
2023-01-22T21:05:51.335Z,94.01
2023-01-22T21:08:20.930Z,94.13
2023-01-22T21:10:58.495Z,94.23
2023-01-22T21:13:28.323Z,93.80
2023-01-22T21:15:57.417Z,94.24
2023-01-22T21:18:28.755Z,94.69
2023-01-22T21:20:59.619Z,94.70
2023-01-22T21:23:28.824Z,94.90
2023-01-22T21:25:57.895Z,94.87
2023-01-22T21:28:27.165Z,95.19
2023-01-22T21:31:08.167Z,94.99
2023-01-22T21:33:40.068Z,95.06
2023-01-22T21:36:20.766Z,94.65
2023-01-22T21:38:50.631Z,94.57
2023-01-22T21:44:17.780Z,94.17
2023-01-22T21:46:48.979Z,94.17
2023-01-22T21:49:27.578Z,94.50
2023-01-22T21:52:05.416Z,94.26
2023-01-22T21:54:37.373Z,94.26
2023-01-22T21:57:07.861Z,94.32
2023-01-22T21:59:42.487Z,94.29
2023-01-22T22:02:19.763Z,94.10
2023-01-22T22:04:56.243Z,93.92
2023-01-22T22:07:32.486Z,93.76
2023-01-22T22:12:36.665Z,93.13
2023-01-22T22:15:09.307Z,93.29
2023-01-22T22:17:44.391Z,93.56
2023-01-22T22:20:18.273Z,94.02
2023-01-22T22:22:47.579Z,93.68
2023-01-22T22:25:16.879Z,93.94
2023-01-22T22:27:51.153Z,93.70
2023-01-22T22:30:20.874Z,93.14
2023-01-22T22:32:50.119Z,93.44
2023-01-22T22:35:31.828Z,94.04
2023-01-22T22:38:01.061Z,93.44
2023-01-22T22:40:30.162Z,93.88
2023-01-22T22:43:06.350Z,93.87
2023-01-22T22:45:40.433Z,94.01
2023-01-22T22:48:09.939Z,94.11
2023-01-22T22:50:42.846Z,94.03
2023-01-22T22:53:21.209Z,93.99
2023-01-22T22:55:52.798Z,93.71
2023-01-22T22:58:22.022Z,94.50
2023-01-22T23:00:50.971Z,93.78
2023-01-22T23:03:26.038Z,94.31
2023-01-22T23:05:57.288Z,95.85
2023-01-22T23:08:26.563Z,96.12
2023-01-22T23:10:56.509Z,96.16
2023-01-22T23:13:25.845Z,97.37
2023-01-22T23:15:55.010Z,96.96
2023-01-22T23:18:28.544Z,96.73
2023-01-22T23:23:42.834Z,96.73
2023-01-22T23:26:14.599Z,96.81
2023-01-22T23:28:43.781Z,98.40
2023-01-22T23:31:16.136Z,97.35
2023-01-22T23:33:51.110Z,96.93
2023-01-22T23:36:22.205Z,96.43
2023-01-22T23:38:52.272Z,96.19
2023-01-22T23:41:25.171Z,95.35
2023-01-22T23:43:54.797Z,95.69
2023-01-22T23:46:26.024Z,95.44
2023-01-22T23:48:57.488Z,95.41
2023-01-22T23:51:31.388Z,95.17
2023-01-22T23:54:05.976Z,95.03
2023-01-22T23:56:35.125Z,94.75
2023-01-22T23:59:09.941Z,94.30
